This is the latest recevied weather packets stored in our database for station/object AB0TJ. If no packets are shown the sender has not sent any weather packets the latest 10 day(s).
| Time | Temp. | Humidity | Pressure | Rain* | Wind** | Luminosity | Snow |
|---|---|---|---|---|---|---|---|
| 1777737644 | 17.78° C | 29% | 1022.6 hPa | 0 mm | - | 520 W/m² | - |
| 1777736018 | 15.56° C | 32% | 1022.6 hPa | 0 mm | - | 438 W/m² | - |
| 1777735443 | 15.56° C | 32% | 1022.6 hPa | 0 mm | - | 413 W/m² | - |
| 1777734864 | 15° C | 31% | 1022.9 hPa | 0 mm | - | 381 W/m² | - |
| 1777734269 | 14.44° C | 31% | 1022.8 hPa | 0 mm | - | 347 W/m² | - |
| 1777733724 | 13.33° C | 32% | 1023 hPa | 0 mm | - | 313 W/m² | - |
| 1777733238 | 12.78° C | 33% | 1022.7 hPa | 0 mm | - | 284 W/m² | - |
| 1777732699 | 12.22° C | 34% | 1022.7 hPa | 0 mm | - | 255 W/m² | - |
| 1777732132 | 12.22° C | 35% | 1022.9 hPa | 0 mm | - | 218 W/m² | - |
| 1777731537 | 11.67° C | 35% | 1022.6 hPa | 0 mm | - | 183 W/m² | - |
| 1777730969 | 11.11° C | 36% | 1022.7 hPa | 0 mm | - | 152 W/m² | - |
| 1777730394 | 10.56° C | 36% | 1022.4 hPa | 0 mm | - | 127 W/m² | - |
| 1777729889 | 10° C | 37% | 1022.2 hPa | 0 mm | - | 99 W/m² | - |
| 1777728809 | 8.89° C | 44% | 1022.1 hPa | 0 mm | - | 55 W/m² | - |
| 1777728249 | 8.33° C | 42% | 1022.2 hPa | 0 mm | - | 33 W/m² | - |
| 1777727769 | 7.78° C | 40% | 1022.2 hPa | 0 mm | - | 29 W/m² | - |
| 1777727219 | 7.22° C | 42% | 1022 hPa | 0 mm | - | 25 W/m² | - |
| 1777726624 | 6.67° C | 44% | 1022 hPa | 0 mm | - | 21 W/m² | - |
| 1777725514 | 6.11° C | 46% | 1021.8 hPa | 0 mm | - | 13 W/m² | - |
| 1777724974 | 6.11° C | 48% | 1021.6 hPa | 0 mm | - | 8 W/m² | - |
| 1777724452 | 6.11° C | 48% | 1021.5 hPa | 0 mm | - | 4 W/m² | - |
| 1777723892 | 6.11° C | 49% | 1021.4 hPa | 0 mm | - | 1 W/m² | - |
| 1777723392 | 6.11° C | 48% | 1021.2 hPa | 0 mm | - | 0 W/m² | - |
| 1777721769 | 6.67° C | 47% | 1021.1 hPa | 0 mm | - | 0 W/m² | - |
| 1777721172 | 6.67° C | 47% | 1021 hPa | 0 mm | - | 0 W/m² | - |
* Rain latest hour (hover to see other rain measurements)
** Current wind speed in m/s (hover to see current wind gust speed)